Time;durP1;ratioP1;P1;durP2;ratioP2;P2;SDS_P1;SDS_P2;PMS_P1;PMS_P2;Temp;Humidity;BMP_temperature;BMP_pressure;BME280_temperature;BME280_humidity;BME280_pressure;Samples;Min_cycle;Max_cycle;Signal;HPM_P1;HPM_P2
2022/05/08 00:00:16;;;;;;;25.85;4.88;;;5.80;99.90;;;;;;5040624;28;20045;-82
2022/05/08 00:02:42;;;;;;;23.25;5.07;;;5.70;99.90;;;;;;5046732;28;20091;-83
2022/05/08 00:05:08;;;;;;;20.55;4.80;;;5.70;99.90;;;;;;5033340;28;20049;-82
2022/05/08 00:07:34;;;;;;;19.35;5.63;;;5.70;99.90;;;;;;5047091;28;20709;-82
2022/05/08 00:10:00;;;;;;;20.73;5.05;;;6.50;99.90;;;;;;5041880;28;20345;-82
2022/05/08 00:12:26;;;;;;;18.52;4.85;;;5.70;99.90;;;;;;5032728;28;20037;-82
2022/05/08 00:14:52;;;;;;;21.50;5.47;;;5.70;99.90;;;;;;5033002;28;20395;-82
2022/05/08 00:17:18;;;;;;;20.00;5.10;;;5.70;99.90;;;;;;5029169;28;20047;-83
2022/05/08 00:19:47;;;;;;;21.08;5.57;;;5.70;99.90;;;;;;5033854;28;20041;-84
2022/05/08 00:22:13;;;;;;;21.45;5.00;;;5.70;99.90;;;;;;5043838;28;20048;-83
2022/05/08 00:24:39;;;;;;;21.92;5.38;;;5.60;99.90;;;;;;5031873;28;20091;-83
2022/05/08 00:27:05;;;;;;;24.02;5.15;;;5.60;99.90;;;;;;5021893;28;20043;-84
2022/05/08 00:29:31;;;;;;;23.35;5.45;;;5.60;99.90;;;;;;5040898;28;20046;-83
2022/05/08 00:31:57;;;;;;;23.10;5.32;;;6.70;99.90;;;;;;5036199;28;20055;-83
2022/05/08 00:34:23;;;;;;;26.02;5.03;;;5.50;99.90;;;;;;5026302;28;20053;-83
2022/05/08 00:36:49;;;;;;;22.20;5.75;;;5.50;99.90;;;;;;5033822;28;20053;-83
2022/05/08 00:39:18;;;;;;;21.77;5.45;;;5.50;99.90;;;;;;5014808;28;20084;-84
2022/05/08 00:41:45;;;;;;;27.05;6.10;;;5.50;99.90;;;;;;5040649;28;20044;-83
2022/05/08 00:44:11;;;;;;;27.48;5.82;;;5.50;99.90;;;;;;5032272;28;20503;-84
2022/05/08 00:46:37;;;;;;;26.63;5.90;;;5.60;99.90;;;;;;5028072;28;20099;-84
2022/05/08 00:49:03;;;;;;;30.63;6.10;;;5.50;99.90;;;;;;5013352;28;20030;-80
2022/05/08 00:51:29;;;;;;;22.58;5.05;;;6.00;99.90;;;;;;5022565;28;20404;-79
2022/05/08 00:53:57;;;;;;;22.40;5.53;;;5.80;99.90;;;;;;5034196;28;20094;-78
2022/05/08 00:56:22;;;;;;;24.63;5.82;;;6.10;99.90;;;;;;5023642;28;20038;-79
2022/05/08 00:58:50;;;;;;;22.35;5.70;;;5.50;99.90;;;;;;5024243;28;20052;-79
2022/05/08 01:01:17;;;;;;;24.50;5.85;;;5.40;99.90;;;;;;5039225;28;20090;-79
2022/05/08 01:03:43;;;;;;;27.27;6.05;;;5.40;99.90;;;;;;5038790;28;20096;-79
2022/05/08 01:06:11;;;;;;;24.52;5.47;;;5.40;99.90;;;;;;5020938;28;20036;-79
2022/05/08 01:08:40;;;;;;;16.52;5.35;;;5.90;99.90;;;;;;5040486;28;20045;-79
2022/05/08 01:11:08;;;;;;;19.02;5.03;;;5.30;99.90;;;;;;5033193;28;20036;-79
2022/05/08 01:13:34;;;;;;;21.05;5.60;;;5.30;99.90;;;;;;5021878;28;20042;-79
2022/05/08 01:16:00;;;;;;;19.67;5.00;;;5.40;99.90;;;;;;5011630;28;20052;-79
2022/05/08 01:18:27;;;;;;;22.42;5.22;;;5.30;99.90;;;;;;5032099;28;20053;-79
2022/05/08 01:20:53;;;;;;;23.80;4.78;;;5.20;99.90;;;;;;5032276;28;20077;-79
2022/05/08 01:23:21;;;;;;;28.25;5.65;;;5.20;99.90;;;;;;5034180;28;20041;-82
2022/05/08 01:25:55;;;;;;;19.83;4.88;;;5.20;99.90;;;;;;5042947;28;20087;-82
2022/05/08 01:28:22;;;;;;;21.02;5.03;;;5.20;99.90;;;;;;5045632;28;20037;-82
2022/05/08 01:30:53;;;;;;;26.27;5.57;;;5.30;99.90;;;;;;5023483;28;20090;-82
2022/05/08 01:33:20;;;;;;;29.35;5.70;;;5.20;99.90;;;;;;5037458;28;20103;-82
2022/05/08 01:35:46;;;;;;;24.33;5.65;;;6.00;99.90;;;;;;5044665;28;20053;-82
2022/05/08 01:38:14;;;;;;;20.65;4.97;;;5.20;99.90;;;;;;5012039;28;20073;-83
2022/05/08 01:40:40;;;;;;;18.60;4.80;;;5.20;99.90;;;;;;5027711;28;20120;-80
2022/05/08 01:43:07;;;;;;;18.45;5.35;;;5.10;99.90;;;;;;5034397;28;20043;-80
2022/05/08 01:45:33;;;;;;;24.55;5.10;;;5.10;99.90;;;;;;5030866;28;20044;-80
2022/05/08 01:50:31;;;;;;;20.52;4.95;;;5.50;99.90;;;;;;5051292;28;20045;-90
2022/05/08 01:52:57;;;;;;;16.27;5.47;;;5.00;99.90;;;;;;5018536;28;20037;-89
2022/05/08 01:55:23;;;;;;;22.95;5.60;;;6.20;99.90;;;;;;5018256;28;20105;-87
2022/05/08 01:57:48;;;;;;;23.33;4.82;;;4.90;99.90;;;;;;5018176;28;20488;-86
2022/05/08 02:00:14;;;;;;;17.30;5.28;;;4.90;99.90;;;;;;5035395;28;20064;-86
2022/05/08 02:02:43;;;;;;;21.38;5.07;;;4.90;99.90;;;;;;4985878;28;20037;-86
2022/05/08 02:05:09;;;;;;;16.35;5.45;;;5.70;99.90;;;;;;5029267;28;20056;-86
2022/05/08 02:07:35;;;;;;;21.85;5.15;;;4.90;99.90;;;;;;5021780;28;20086;-86
2022/05/08 02:10:02;;;;;;;22.60;5.55;;;4.80;99.90;;;;;;5022078;28;20033;-86
2022/05/08 02:12:27;;;;;;;24.63;5.03;;;4.80;99.90;;;;;;5038385;28;20040;-86
2022/05/08 02:14:53;;;;;;;22.05;5.03;;;6.00;99.90;;;;;;5021841;28;20043;-86
2022/05/08 02:17:19;;;;;;;21.90;5.07;;;5.40;99.90;;;;;;5021873;28;20194;-86
2022/05/08 02:19:44;;;;;;;20.33;5.07;;;6.10;99.90;;;;;;5021587;28;20482;-86
2022/05/08 02:22:10;;;;;;;24.48;4.88;;;4.30;99.90;;;;;;4989058;28;20033;-86
2022/05/08 02:24:36;;;;;;;12.23;4.30;;;5.30;99.90;;;;;;5005335;28;20041;-86
2022/05/08 02:27:02;;;;;;;19.80;5.25;;;5.90;99.90;;;;;;5001802;28;20041;-86
2022/05/08 02:29:28;;;;;;;16.25;4.95;;;4.80;99.90;;;;;;5029026;28;20401;-89
2022/05/08 02:31:54;;;;;;;19.75;4.78;;;5.10;99.90;;;;;;5037851;28;20045;-89
2022/05/08 02:34:19;;;;;;;13.88;4.68;;;4.70;99.90;;;;;;5005196;28;20040;-89
2022/05/08 02:36:45;;;;;;;15.05;4.22;;;5.30;99.90;;;;;;5005419;28;20060;-89
2022/05/08 02:39:11;;;;;;;20.08;4.80;;;4.70;99.90;;;;;;5014886;28;20487;-89
2022/05/08 02:41:37;;;;;;;20.17;4.75;;;4.60;99.90;;;;;;5021528;28;20048;-89
2022/05/08 02:44:02;;;;;;;19.27;5.10;;;4.60;99.90;;;;;;5037542;28;20044;-88
2022/05/08 02:46:28;;;;;;;19.95;4.30;;;4.70;99.90;;;;;;5037794;28;20045;-86
2022/05/08 02:48:54;;;;;;;18.63;4.78;;;4.60;99.90;;;;;;4995154;28;20125;-86
2022/05/08 02:51:19;;;;;;;18.88;4.38;;;4.60;99.90;;;;;;4982406;28;20085;-86
2022/05/08 02:53:46;;;;;;;14.80;4.13;;;5.00;99.90;;;;;;5017622;28;20498;-86
2022/05/08 02:58:56;;;;;;;20.02;4.53;;;;;;;;;;5028365;28;20057;-85
2022/05/08 03:01:22;;;;;;;16.83;4.63;;;4.50;99.90;;;;;;5017851;28;20045;-86
2022/05/08 03:03:48;;;;;;;19.95;4.72;;;4.50;99.90;;;;;;5001300;28;20045;-86
2022/05/08 03:06:14;;;;;;;16.23;4.72;;;4.60;99.90;;;;;;5017381;28;20048;-86
2022/05/08 03:08:40;;;;;;;19.33;4.15;;;5.60;99.90;;;;;;5017489;28;20046;-86
2022/05/08 03:13:50;;;;;;;17.20;4.50;;;4.90;99.90;;;;;;5033753;28;20046;-86
2022/05/08 03:16:16;;;;;;;13.50;4.10;;;5.80;99.90;;;;;;5017275;28;20530;-86
2022/05/08 03:18:41;;;;;;;20.05;4.32;;;4.90;99.90;;;;;;5033745;28;20072;-89
2022/05/08 03:21:08;;;;;;;14.00;4.15;;;4.40;99.90;;;;;;5033676;28;20050;-89
2022/05/08 03:23:34;;;;;;;15.48;4.53;;;4.80;99.90;;;;;;5000778;28;20041;-89
2022/05/08 03:26:01;;;;;;;15.35;3.65;;;4.50;99.90;;;;;;5017101;28;20075;-89
2022/05/08 03:28:27;;;;;;;14.93;4.30;;;5.00;99.90;;;;;;5017482;28;20038;-89
2022/05/08 03:30:53;;;;;;;16.02;3.97;;;5.10;99.90;;;;;;5033891;28;20033;-89
2022/05/08 03:33:19;;;;;;;14.52;3.85;;;4.60;99.90;;;;;;5017151;28;20540;-89
2022/05/08 03:35:44;;;;;;;15.68;3.90;;;4.60;99.90;;;;;;5017037;28;20047;-86
2022/05/08 03:38:10;;;;;;;15.98;3.33;;;4.70;99.90;;;;;;5016979;28;20573;-86
2022/05/08 03:40:36;;;;;;;12.65;3.63;;;4.70;99.90;;;;;;5000661;28;20526;-86
2022/05/08 03:43:03;;;;;;;18.38;3.35;;;5.40;99.90;;;;;;5016753;28;20496;-86
2022/05/08 03:45:29;;;;;;;13.18;3.47;;;4.80;99.90;;;;;;5016752;28;20037;-86
2022/05/08 03:47:56;;;;;;;13.98;3.45;;;4.80;99.90;;;;;;5033307;28;20071;-86
2022/05/08 03:50:22;;;;;;;17.00;3.30;;;5.80;99.90;;;;;;5016519;28;20403;-86
2022/05/08 03:52:48;;;;;;;10.57;2.88;;;4.90;99.90;;;;;;4997307;28;20133;-86
2022/05/08 03:55:17;;;;;;;13.73;3.47;;;5.00;99.90;;;;;;5016550;28;20515;-86
2022/05/08 03:57:43;;;;;;;13.60;3.22;;;5.00;99.90;;;;;;5016442;28;20041;-86
2022/05/08 04:00:10;;;;;;;13.93;3.17;;;4.90;99.90;;;;;;5033186;28;20043;-86
2022/05/08 04:02:36;;;;;;;10.43;3.67;;;4.90;99.90;;;;;;4996837;28;20049;-86
2022/05/08 04:05:03;;;;;;;9.85;3.40;;;4.90;99.90;;;;;;4984355;28;20115;-86
2022/05/08 04:07:29;;;;;;;12.07;3.15;;;4.90;99.90;;;;;;5032911;28;20049;-86
2022/05/08 04:09:55;;;;;;;12.05;3.35;;;4.90;99.90;;;;;;5016593;28;20037;-86
2022/05/08 04:12:21;;;;;;;10.73;3.33;;;5.10;99.90;;;;;;5016010;28;20052;-86
2022/05/08 04:14:47;;;;;;;11.35;3.20;;;4.90;99.90;;;;;;4999826;28;20041;-86
2022/05/08 04:17:12;;;;;;;13.05;3.10;;;6.10;99.90;;;;;;5016247;28;20045;-85
2022/05/08 04:19:38;;;;;;;12.40;2.85;;;5.00;99.90;;;;;;4999780;28;20048;-85
2022/05/08 04:24:49;;;;;;;13.15;3.03;;;5.10;99.90;;;;;;5031987;28;20041;-86
2022/05/08 04:27:15;;;;;;;14.57;3.10;;;5.80;99.90;;;;;;5016377;28;20033;-86
2022/05/08 04:29:40;;;;;;;7.38;2.97;;;5.10;99.90;;;;;;5016124;28;20116;-86
2022/05/08 04:32:06;;;;;;;10.05;2.92;;;5.10;99.90;;;;;;5032384;28;20146;-86
2022/05/08 04:34:32;;;;;;;9.15;2.97;;;5.10;99.90;;;;;;5032315;28;20163;-86
2022/05/08 04:36:58;;;;;;;15.65;3.35;;;5.20;99.90;;;;;;5016230;28;20120;-86
2022/05/08 04:39:24;;;;;;;9.95;2.80;;;5.40;99.90;;;;;;5015965;28;20480;-85
2022/05/08 04:41:49;;;;;;;10.40;3.53;;;5.40;99.90;;;;;;5032323;28;20475;-89
2022/05/08 04:44:15;;;;;;;10.52;2.92;;;5.50;99.90;;;;;;5015988;28;20046;-89
2022/05/08 04:46:41;;;;;;;6.47;2.72;;;7.00;99.90;;;;;;4999627;28;20087;-89
2022/05/08 04:49:07;;;;;;;10.75;2.88;;;6.00;99.90;;;;;;5031909;28;20095;-90
2022/05/08 04:51:32;;;;;;;12.77;2.90;;;5.70;99.90;;;;;;5015946;28;20042;-90
2022/05/08 04:53:58;;;;;;;17.17;2.85;;;5.80;99.90;;;;;;5015888;28;20030;-90
2022/05/08 04:56:24;;;;;;;10.90;2.90;;;5.90;99.90;;;;;;5032105;28;20145;-89
2022/05/08 04:58:49;;;;;;;9.73;2.53;;;6.90;99.90;;;;;;5015476;28;20042;-86
2022/05/08 05:01:15;;;;;;;11.23;2.90;;;6.20;99.90;;;;;;4999258;28;20033;-86
2022/05/08 05:03:41;;;;;;;9.45;2.60;;;6.50;99.90;;;;;;5015330;28;20120;-86
2022/05/08 05:06:07;;;;;;;14.27;2.95;;;7.40;99.90;;;;;;5015677;28;20033;-86
2022/05/08 05:08:33;;;;;;;9.00;2.67;;;8.00;99.90;;;;;;5015326;28;20049;-86
2022/05/08 05:10:59;;;;;;;18.67;3.17;;;6.90;99.90;;;;;;5031747;28;20045;-86
2022/05/08 05:13:25;;;;;;;10.18;2.90;;;7.80;99.90;;;;;;5015305;28;20041;-86
2022/05/08 05:15:54;;;;;;;12.45;3.40;;;7.40;99.90;;;;;;5031775;28;20099;-91
2022/05/08 05:18:20;;;;;;;10.88;3.20;;;7.70;99.90;;;;;;5031970;28;20037;-90
2022/05/08 05:20:45;;;;;;;11.38;3.08;;;8.10;99.90;;;;;;5015774;28;20102;-90
2022/05/08 05:23:12;;;;;;;11.45;3.03;;;8.50;99.90;;;;;;5015573;28;20041;-91
2022/05/08 05:25:38;;;;;;;8.57;2.35;;;8.80;99.90;;;;;;5031832;28;20049;-91
2022/05/08 05:28:04;;;;;;;13.63;2.80;;;9.20;99.90;;;;;;5031660;28;20447;-92
2022/05/08 05:30:30;;;;;;;8.13;2.65;;;9.30;99.90;;;;;;4999410;28;20041;-91
2022/05/08 05:32:56;;;;;;;16.80;3.00;;;9.60;99.90;;;;;;5015651;28;20045;-91
2022/05/08 05:35:21;;;;;;;10.68;2.92;;;10.00;99.90;;;;;;5001960;28;20487;-91
2022/05/08 05:37:47;;;;;;;10.65;2.55;;;10.30;99.90;;;;;;4991409;28;20095;-91
2022/05/08 05:40:13;;;;;;;6.75;2.25;;;10.60;99.90;;;;;;5003017;28;20087;-91
2022/05/08 05:42:38;;;;;;;12.75;2.75;;;11.00;99.90;;;;;;5035562;28;20043;-91
2022/05/08 05:45:04;;;;;;;13.20;2.75;;;11.30;99.90;;;;;;5019217;28;20037;-91
2022/05/08 05:50:15;;;;;;;11.50;2.78;;;11.50;99.90;;;;;;5021477;28;20052;-87
2022/05/08 05:52:41;;;;;;;8.48;2.40;;;11.80;99.90;;;;;;5018821;28;20132;-87
2022/05/08 05:55:07;;;;;;;10.88;2.40;;;11.40;99.90;;;;;;5002847;28;20132;-87
2022/05/08 05:57:34;;;;;;;8.43;2.60;;;11.40;99.90;;;;;;5035488;28;20452;-87
2022/05/08 06:00:00;;;;;;;8.30;2.35;;;11.40;99.90;;;;;;5035929;28;20442;-87
2022/05/08 06:02:25;;;;;;;9.07;2.67;;;12.00;99.90;;;;;;5002346;28;20033;-87
2022/05/08 06:04:51;;;;;;;7.47;2.20;;;12.40;99.90;;;;;;5002375;28;20514;-87
2022/05/08 06:07:17;;;;;;;6.53;2.38;;;13.20;99.90;;;;;;5035913;28;20102;-91
2022/05/08 06:09:43;;;;;;;7.75;2.17;;;13.80;99.90;;;;;;4986694;28;20498;-91
2022/05/08 06:12:09;;;;;;;7.20;2.05;;;14.30;99.90;;;;;;5019024;28;20094;-92
2022/05/08 06:14:35;;;;;;;9.23;2.70;;;14.40;99.90;;;;;;5018862;28;20171;-91
2022/05/08 06:17:01;;;;;;;8.18;2.22;;;14.50;99.90;;;;;;5035565;28;20107;-92
2022/05/08 06:19:26;;;;;;;6.80;2.30;;;14.40;99.90;;;;;;5019694;28;20041;-91
2022/05/08 06:21:52;;;;;;;6.22;2.03;;;14.30;99.90;;;;;;4986291;28;20483;-87
2022/05/08 06:24:18;;;;;;;7.10;2.00;;;14.30;99.90;;;;;;5018187;28;20510;-88
2022/05/08 06:26:44;;;;;;;9.65;2.42;;;14.90;99.90;;;;;;5018280;28;20038;-88
2022/05/08 06:29:10;;;;;;;8.38;2.20;;;15.30;99.90;;;;;;5018414;28;20060;-93
2022/05/08 06:31:36;;;;;;;6.90;1.83;;;15.50;99.90;;;;;;5035164;28;20045;-93
2022/05/08 06:34:02;;;;;;;9.93;2.20;;;16.10;99.90;;;;;;5002499;28;20044;-93
2022/05/08 06:36:28;;;;;;;8.50;2.30;;;16.70;99.90;;;;;;5018721;28;20553;-94
2022/05/08 06:38:56;;;;;;;8.93;2.35;;;17.30;99.90;;;;;;5034939;28;20041;-89
2022/05/08 06:41:25;;;;;;;10.73;2.00;;;17.70;99.30;;;;;;4985403;28;20052;-89
2022/05/08 06:43:51;;;;;;;8.48;2.20;;;18.00;98.40;;;;;;5017777;28;20037;-89
2022/05/08 06:46:17;;;;;;;10.00;2.20;;;18.50;97.30;;;;;;5017396;28;20460;-90
2022/05/08 06:48:43;;;;;;;7.75;2.25;;;19.00;95.80;;;;;;5020763;28;20045;-89
2022/05/08 06:51:10;;;;;;;7.68;2.10;;;18.70;94.00;;;;;;5021050;28;20049;-89
2022/05/08 06:53:36;;;;;;;10.45;2.28;;;18.00;93.60;;;;;;5004633;28;20040;-89
2022/05/08 06:56:02;;;;;;;9.93;2.20;;;17.30;93.50;;;;;;5021571;28;20037;-92
2022/05/08 06:58:27;;;;;;;10.27;2.22;;;16.60;94.40;;;;;;5021447;28;20037;-92
2022/05/08 07:03:39;;;;;;;10.07;2.50;;;15.50;95.90;;;;;;5037962;28;20482;-92
2022/05/08 07:06:08;;;;;;;9.77;2.47;;;15.20;97.20;;;;;;5021258;28;20045;-92
2022/05/08 07:08:35;;;;;;;6.45;1.95;;;15.60;98.10;;;;;;5037630;28;20041;-93
2022/05/08 07:11:01;;;;;;;6.97;2.13;;;16.80;97.40;;;;;;5038165;28;20045;-93
2022/05/08 07:13:28;;;;;;;9.27;2.65;;;17.90;95.10;;;;;;5021102;28;20052;-89
2022/05/08 07:15:53;;;;;;;10.95;2.05;;;18.70;92.80;;;;;;5020716;28;20044;-89
2022/05/08 07:18:19;;;;;;;6.45;2.08;;;19.20;91.10;;;;;;5037453;28;20052;-89
2022/05/08 07:20:45;;;;;;;5.28;1.80;;;20.30;90.70;;;;;;5004190;28;20532;-89
2022/05/08 07:23:14;;;;;;;9.00;2.47;;;20.60;85.40;;;;;;5020351;28;20041;-90
2022/05/08 07:25:41;;;;;;;9.60;2.67;;;21.30;81.40;;;;;;5020691;28;20045;-89
2022/05/08 07:28:12;;;;;;;9.27;2.17;;;21.50;79.40;;;;;;5002654;28;20030;-89
2022/05/08 07:30:38;;;;;;;8.57;2.13;;;21.90;77.50;;;;;;4996447;28;20115;-89
2022/05/08 07:33:04;;;;;;;11.15;2.40;;;22.00;75.30;;;;;;4984499;28;20129;-89
2022/05/08 07:38:21;;;;;;;8.57;2.35;;;22.10;74.50;;;;;;5022584;28;20059;-89
2022/05/08 07:40:50;;;;;;;9.98;2.40;;;22.20;74.50;;;;;;5036987;28;20048;-89
2022/05/08 07:43:16;;;;;;;8.73;2.63;;;22.50;68.90;;;;;;5004226;28;20037;-89
2022/05/08 07:45:43;;;;;;;11.90;2.58;;;22.50;71.20;;;;;;5004470;28;20132;-94
2022/05/08 07:48:09;;;;;;;6.38;2.25;;;22.20;69.10;;;;;;5020920;28;20096;-94
2022/05/08 07:50:35;;;;;;;6.82;1.95;;;21.00;69.30;;;;;;5020615;28;20057;-93
2022/05/08 07:53:01;;;;;;;11.05;2.50;;;19.90;71.10;;;;;;5004438;28;20163;-93
2022/05/08 07:55:26;;;;;;;10.98;2.50;;;19.00;72.10;;;;;;5004249;28;20076;-93
2022/05/08 07:57:52;;;;;;;7.72;2.20;;;18.20;73.40;;;;;;5003967;28;20041;-94
2022/05/08 08:00:18;;;;;;;7.22;2.13;;;17.70;75.20;;;;;;5004263;28;20128;-93
2022/05/08 08:02:44;;;;;;;8.32;2.47;;;18.00;77.00;;;;;;5020129;28;20032;-89
2022/05/08 08:05:10;;;;;;;9.57;2.30;;;18.10;77.10;;;;;;4987942;28;20040;-89
2022/05/08 08:07:36;;;;;;;9.88;2.20;;;18.10;77.30;;;;;;5019739;28;20060;-89
2022/05/08 08:10:03;;;;;;;7.95;2.20;;;18.10;77.50;;;;;;5026465;28;20044;-89
2022/05/08 08:12:29;;;;;;;7.75;2.10;;;18.50;77.70;;;;;;5032214;28;20041;-90
2022/05/08 08:14:55;;;;;;;7.45;2.35;;;19.70;77.20;;;;;;5020159;28;20041;-90
2022/05/08 08:17:22;;;;;;;6.78;2.25;;;20.90;74.40;;;;;;4987581;28;20077;-90
2022/05/08 08:19:48;;;;;;;6.80;1.83;;;22.10;71.60;;;;;;4987791;28;20068;-89
2022/05/08 08:22:14;;;;;;;7.53;2.22;;;23.00;70.90;;;;;;5036517;28;20406;-89
2022/05/08 08:24:40;;;;;;;7.70;2.30;;;23.70;67.50;;;;;;4987270;28;20039;-89
2022/05/08 08:27:07;;;;;;;7.35;2.30;;;24.20;65.40;;;;;;5036224;28;20398;-89
2022/05/08 08:29:33;;;;;;;6.85;1.85;;;24.80;66.00;;;;;;5019762;28;20033;-90
2022/05/08 08:31:59;;;;;;;7.30;1.98;;;25.10;63.90;;;;;;5019565;28;20107;-90
2022/05/08 08:34:26;;;;;;;6.63;2.30;;;25.30;63.10;;;;;;5019979;28;20447;-90
2022/05/08 08:36:52;;;;;;;8.27;2.40;;;25.20;60.60;;;;;;5040224;28;20045;-95
2022/05/08 08:39:23;;;;;;;12.73;2.47;;;25.40;60.90;;;;;;5023861;28;20040;-96
2022/05/08 08:42:00;;;;;;;9.48;2.58;;;24.90;60.60;;;;;;5006658;28;20475;-95
2022/05/08 08:50:05;;;;;;;9.68;2.60;;;22.30;61.90;;;;;;5022554;28;20048;-95
2022/05/08 08:52:32;;;;;;;6.20;2.08;;;22.10;62.50;;;;;;5021381;28;20053;-90
2022/05/08 08:55:01;;;;;;;8.80;2.42;;;22.40;62.90;;;;;;5033908;28;20047;-90
2022/05/08 08:57:27;;;;;;;9.10;2.90;;;23.00;61.70;;;;;;5007590;28;20041;-91
2022/05/08 08:59:53;;;;;;;8.13;2.47;;;22.90;62.50;;;;;;5002847;28;20051;-90
2022/05/08 09:02:20;;;;;;;8.30;2.63;;;23.70;61.80;;;;;;5035309;28;20123;-90
2022/05/08 09:04:57;;;;;;;9.23;2.53;;;24.40;60.20;;;;;;5019628;28;20041;-90
2022/05/08 09:07:42;;;;;;;7.72;2.45;;;25.00;58.30;;;;;;5002629;28;20037;-90
2022/05/08 09:10:21;;;;;;;13.90;2.83;;;25.00;55.90;;;;;;5003639;28;20087;-90
2022/05/08 09:12:53;;;;;;;8.90;2.55;;;25.00;56.40;;;;;;5019233;28;20047;-90
2022/05/08 09:15:40;;;;;;;7.38;2.40;;;24.20;58.00;;;;;;5018680;28;20097;-91
2022/05/08 09:18:08;;;;;;;8.50;2.50;;;24.40;59.10;;;;;;5021558;28;20309;-91
2022/05/08 09:20:43;;;;;;;7.22;2.40;;;25.40;58.80;;;;;;5024565;28;20079;-96
2022/05/08 09:23:18;;;;;;;7.88;2.70;;;25.90;56.10;;;;;;5023263;28;20106;-95
2022/05/08 09:25:56;;;;;;;7.78;2.33;;;25.70;57.50;;;;;;5020793;28;20131;-91
2022/05/08 09:28:41;;;;;;;9.85;2.83;;;25.50;55.70;;;;;;5039918;28;20041;-91
2022/05/08 09:31:11;;;;;;;;;;;25.50;56.20;;;;;;5019616;28;20041;-91
2022/05/08 09:33:39;;;;;;;8.63;2.80;;;26.00;56.90;;;;;;5035536;28;20026;-91
2022/05/08 09:36:19;;;;;;;10.13;2.95;;;25.70;55.20;;;;;;5018763;28;20048;-90
2022/05/08 09:38:48;;;;;;;8.43;2.63;;;25.00;55.50;;;;;;5018460;28;20072;-90
2022/05/08 09:41:17;;;;;;;9.18;2.70;;;24.00;57.00;;;;;;5002746;28;20052;-91
2022/05/08 09:43:43;;;;;;;10.80;2.92;;;23.90;58.00;;;;;;5018731;28;20033;-90
2022/05/08 09:46:09;;;;;;;6.28;2.55;;;24.90;57.50;;;;;;5002170;28;20052;-90
2022/05/08 09:48:38;;;;;;;8.45;2.78;;;25.80;56.80;;;;;;5018676;28;20029;-90
2022/05/08 09:51:10;;;;;;;9.23;2.35;;;26.20;55.30;;;;;;5011892;28;20128;-90
2022/05/08 09:53:49;;;;;;;8.50;2.42;;;26.10;54.40;;;;;;4994424;28;20404;-91
2022/05/08 09:56:14;;;;;;;7.20;2.33;;;26.70;53.90;;;;;;4995817;28;20068;-90
2022/05/08 09:58:43;;;;;;;10.40;2.60;;;27.00;55.00;;;;;;4995506;28;20481;-95
2022/05/08 10:01:13;;;;;;;7.03;2.50;;;26.50;53.70;;;;;;4982472;28;20042;-96
2022/05/08 10:03:43;;;;;;;7.93;2.40;;;25.80;54.10;;;;;;4987156;28;20038;-95
2022/05/08 10:06:16;;;;;;;7.10;2.20;;;25.70;55.00;;;;;;5003855;28;20112;-96
2022/05/08 10:13:53;;;;;;;10.77;2.50;;;26.20;53.80;;;;;;5000175;28;20044;-96
2022/05/08 10:14:35;;;;;;;6.97;2.30;;;27.30;53.00;;;;;;5016060;28;20115;-94
2022/05/08 10:17:02;;;;;;;13.35;2.63;;;28.00;53.20;;;;;;4998661;28;20042;-95
2022/05/08 10:19:28;;;;;;;12.32;2.72;;;28.20;51.90;;;;;;5000406;28;20038;-95
2022/05/08 10:22:03;;;;;;;8.98;2.58;;;28.20;52.80;;;;;;4998636;28;20395;-96
2022/05/08 10:24:52;;;;;;;8.85;2.53;;;28.60;51.30;;;;;;5001320;28;20037;-96
2022/05/08 10:27:30;;;;;;;11.00;2.60;;;28.80;50.80;;;;;;5003434;28;20060;-96
2022/05/08 10:29:56;;;;;;;7.15;2.53;;;28.40;47.80;;;;;;5007432;28;20172;-95
2022/05/08 10:32:27;;;;;;;7.35;2.40;;;28.40;49.80;;;;;;5001794;28;20084;-94
2022/05/08 10:38:16;;;;;;;9.98;2.50;;;28.50;50.30;;;;;;5015839;28;20054;-94
2022/05/08 10:40:42;;;;;;;7.53;2.63;;;28.50;49.30;;;;;;5015248;28;20484;-93
2022/05/08 10:43:14;;;;;;;7.47;2.80;;;28.90;50.00;;;;;;5015198;28;20048;-95
2022/05/08 10:45:43;;;;;;;9.90;2.60;;;28.70;49.60;;;;;;4999367;28;20038;-93
2022/05/08 10:48:10;;;;;;;7.65;2.40;;;28.50;48.50;;;;;;4999380;28;20048;-93
2022/05/08 10:50:56;;;;;;;6.88;1.98;;;28.90;49.50;;;;;;5031378;28;20049;-94
2022/05/08 10:53:33;;;;;;;7.72;2.50;;;28.90;47.30;;;;;;5018000;28;20140;-93
2022/05/08 10:56:08;;;;;;;9.70;2.60;;;28.60;46.80;;;;;;5035436;28;20041;-93
2022/05/08 10:58:35;;;;;;;10.75;2.80;;;28.50;46.60;;;;;;5002656;28;20045;-93
2022/05/08 11:01:03;;;;;;;7.50;2.33;;;28.30;48.10;;;;;;5002794;28;20554;-95
2022/05/08 11:03:29;;;;;;;11.05;2.70;;;28.80;48.80;;;;;;5018478;28;20116;-93
2022/05/08 11:05:56;;;;;;;7.22;2.33;;;28.90;48.30;;;;;;5001605;28;20120;-92
2022/05/08 11:08:31;;;;;;;9.75;2.53;;;29.60;48.20;;;;;;5017632;28;20490;-91
2022/05/08 11:10:59;;;;;;;11.15;2.83;;;29.60;47.00;;;;;;5017475;28;20124;-91
2022/05/08 11:13:26;;;;;;;9.10;2.30;;;28.80;45.00;;;;;;5017705;28;20046;-91
2022/05/08 11:15:52;;;;;;;8.02;2.63;;;29.10;47.80;;;;;;5017721;28;20054;-91
2022/05/08 11:18:20;;;;;;;6.13;2.13;;;29.20;47.60;;;;;;5017292;28;20045;-91
2022/05/08 11:20:55;;;;;;;6.13;2.20;;;29.40;47.70;;;;;;5034140;28;20111;-91
2022/05/08 11:23:27;;;;;;;7.55;2.53;;;29.70;47.00;;;;;;5018082;28;20498;-91
2022/05/08 11:26:07;;;;;;;8.25;2.33;;;30.00;46.40;;;;;;5017054;28;20042;-91
2022/05/08 11:28:35;;;;;;;10.30;3.03;;;29.80;45.40;;;;;;5033646;28;20476;-91
2022/05/08 11:31:16;;;;;;;8.02;2.50;;;29.00;46.40;;;;;;5003332;28;20038;-91
2022/05/08 11:36:38;;;;;;;9.48;2.97;;;29.30;46.30;;;;;;5019820;28;20037;-90
2022/05/08 11:39:05;;;;;;;9.30;2.75;;;29.20;46.10;;;;;;5017614;28;20399;-94
2022/05/08 11:41:36;;;;;;;7.07;2.55;;;29.20;46.10;;;;;;5018424;28;20052;-94
2022/05/08 11:44:20;;;;;;;10.25;2.50;;;29.00;45.60;;;;;;5018671;28;20037;-95
2022/05/08 11:47:05;;;;;;;8.07;2.60;;;29.30;44.80;;;;;;5019617;28;20042;-96
2022/05/08 11:49:40;;;;;;;7.88;2.42;;;28.70;45.80;;;;;;5009847;28;20041;-94
2022/05/08 11:52:19;;;;;;;8.95;2.42;;;29.10;46.00;;;;;;5019378;28;20569;-93
2022/05/08 11:55:02;;;;;;;8.73;2.65;;;29.10;46.70;;;;;;5020382;28;20077;-94
2022/05/08 11:57:28;;;;;;;5.28;2.13;;;29.00;46.00;;;;;;4997763;28;20395;-90
2022/05/08 12:00:08;;;;;;;7.55;2.40;;;28.90;45.40;;;;;;5017286;28;20364;-90
2022/05/08 12:02:49;;;;;;;7.20;2.42;;;28.60;45.70;;;;;;5000404;28;20033;-90
2022/05/08 12:05:23;;;;;;;11.32;2.40;;;28.70;45.90;;;;;;5016822;28;20041;-90
2022/05/08 12:07:50;;;;;;;7.30;2.15;;;28.80;46.50;;;;;;5016446;28;20499;-90
2022/05/08 12:10:17;;;;;;;8.57;2.30;;;28.40;46.20;;;;;;5000070;28;20038;-90
2022/05/08 12:12:46;;;;;;;8.27;2.38;;;27.80;46.30;;;;;;5017419;28;20053;-94
2022/05/08 12:15:11;;;;;;;11.20;3.30;;;27.50;47.20;;;;;;5018107;28;20124;-92
2022/05/08 12:17:41;;;;;;;8.45;2.60;;;27.10;47.30;;;;;;5016841;28;20128;-92
2022/05/08 12:20:12;;;;;;;9.15;2.40;;;25.80;46.40;;;;;;5033282;28;20492;-92
2022/05/08 12:22:42;;;;;;;7.20;2.60;;;25.60;48.00;;;;;;5016716;28;20034;-93
2022/05/08 12:25:08;;;;;;;8.65;2.78;;;25.60;48.40;;;;;;5016866;28;20482;-93
2022/05/08 12:27:35;;;;;;;9.18;2.42;;;25.40;49.10;;;;;;5000678;28;20038;-93
2022/05/08 12:30:02;;;;;;;10.77;2.55;;;25.00;49.70;;;;;;5016493;28;20029;-90
2022/05/08 12:32:28;;;;;;;8.75;2.72;;;24.80;50.40;;;;;;5032984;28;20099;-90
2022/05/08 12:34:57;;;;;;;8.95;2.60;;;24.40;51.40;;;;;;5015905;28;20551;-90
2022/05/08 12:37:23;;;;;;;7.25;2.42;;;23.80;52.00;;;;;;5032684;28;20046;-90
2022/05/08 12:39:54;;;;;;;9.20;2.40;;;23.50;52.80;;;;;;5015832;28;20395;-90
2022/05/08 12:42:20;;;;;;;11.43;2.90;;;23.30;53.10;;;;;;4999449;28;20034;-90
2022/05/08 12:44:47;;;;;;;10.45;2.60;;;23.10;52.90;;;;;;5015585;28;20056;-90
2022/05/08 12:47:14;;;;;;;8.05;2.50;;;22.90;53.20;;;;;;5016303;28;20450;-89
2022/05/08 12:49:42;;;;;;;8.32;2.78;;;22.70;53.50;;;;;;5016173;28;20053;-94
2022/05/08 12:52:11;;;;;;;8.63;2.72;;;22.50;54.70;;;;;;5001405;28;20135;-93
2022/05/08 12:54:37;;;;;;;9.75;2.90;;;22.30;55.20;;;;;;5016883;28;20387;-93
2022/05/08 12:57:06;;;;;;;6.82;2.63;;;22.20;56.30;;;;;;5016378;28;20049;-93
2022/05/08 12:59:42;;;;;;;7.10;2.30;;;22.20;56.30;;;;;;5016692;28;20395;-94
2022/05/08 13:02:11;;;;;;;9.20;2.67;;;22.10;55.40;;;;;;5016633;28;20048;-93
2022/05/08 13:04:39;;;;;;;8.65;2.60;;;21.90;55.00;;;;;;5017231;28;20056;-92
2022/05/08 13:11:27;;;;;;;8.15;2.40;;;21.50;56.00;;;;;;5033903;28;20442;-93
2022/05/08 13:13:53;;;;;;;8.00;2.13;;;21.40;56.40;;;;;;4999545;28;20045;-93
2022/05/08 13:16:18;;;;;;;8.82;2.22;;;21.50;56.00;;;;;;5016079;28;20045;-92
2022/05/08 13:18:44;;;;;;;10.48;2.63;;;21.50;55.80;;;;;;4996575;28;20049;-88
2022/05/08 13:21:13;;;;;;;11.45;2.40;;;21.50;55.90;;;;;;5027898;28;20090;-88
2022/05/08 13:23:39;;;;;;;11.07;2.40;;;21.80;57.00;;;;;;5030610;28;20038;-89
2022/05/08 13:26:05;;;;;;;10.85;2.72;;;21.40;57.80;;;;;;4999014;28;20033;-88